Rochester, NY (14618)

6:49 PM EDT on September 25, 2016 (GMT -0400)
Evans Farm | | Change Station

Elev 512 ft 43.11 °N, 77.56 °W | Updated 13 seconds ago

Scattered Clouds
Scattered Clouds
56.2 °F
Feels Like 56.2 °F
N
0.0
Wind Variable Wind from WSW
Gusts 0.0 mph

Today
High -- | Low -- °F
--% Chance of Precip.
Yesterday
High -- | Low -- °F
Precip. -- in
Pressure 30.20 in
Visibility 10.0 miles
Clouds Few 16000 ft
Scattered Clouds 25000 ft
Dew Point 41 °F
Humidity 56%
Rainfall 0.00 in
Snow Depth Not available.
7:01 AM 7:01 PM
Waning Crescent, 24% visible
METAR KROC 252154Z 05007KT 10SM FEW160 SCT250 16/03 A3018 RMK AO2 SLP225 T01610033
Pressure 30.20 in
Visibility 10.0 miles
Clouds Few 16000 ft
Scattered Clouds 25000 ft
Dew Point 41 °F
Humidity 56%
Rainfall 0.00 in
Snow Depth Not available.
7:01 AM 7:01 PM
Waning Crescent, 24% visible
METAR KROC 252154Z 05007KT 10SM FEW160 SCT250 16/03 A3018 RMK AO2 SLP225 T01610033

10-Day Weather Forecast

Almanac

Astronomy

Sep. 25, 2016 Rise Set
Actual Time
Civil Twilight
Nautical Twilight
Astronomical Twilight
Moon
Length of Visible Light
Length of Day
Tomorrow will be .
, % of the Moon is Illuminated

Today's Extremes

State Highs State Lows

Community

WunderPhotos

Upload Photos

1,941,761 photos uploaded!

WunderBlog® & News

Nearby

Air Quality

  Air Quality AQ Index Pollutant
Not available.

Snow Depth

Station Depth Elevation

Earthquake Activity

City Distance Mag. Time & Date
Minimum magnitude displayed is 2.5.

Coastal Water Temperatures

Place Temperature

Stations

Nearby Weather Stations

Station Location Temp. Windchill Dew Point Humidity Wind Precip. Elev Updated Type
                   

Watches & Warnings

There are currently no watches in effect.